sensor_id;sensor_type;location;lat;lon;timestamp;pressure;altitude;pressure_sealevel;temperature;humidity
16120;BME280;12670;53.502;10.252;2023-08-06T00:00:29;100477.38;;;18.09;100.00
16120;BME280;12670;53.502;10.252;2023-08-06T00:03:32;100470.06;;;18.11;100.00
16120;BME280;12670;53.502;10.252;2023-08-06T00:06:35;100471.50;;;18.04;100.00
16120;BME280;12670;53.502;10.252;2023-08-06T00:09:39;100465.78;;;18.09;100.00
16120;BME280;12670;53.502;10.252;2023-08-06T00:12:42;100463.47;;;18.04;100.00
16120;BME280;12670;53.502;10.252;2023-08-06T00:15:45;100452.97;;;18.01;100.00
16120;BME280;12670;53.502;10.252;2023-08-06T00:18:47;100455.75;;;18.00;100.00
16120;BME280;12670;53.502;10.252;2023-08-06T00:21:50;100462.97;;;17.99;100.00
16120;BME280;12670;53.502;10.252;2023-08-06T00:24:54;100469.91;;;17.91;100.00
16120;BME280;12670;53.502;10.252;2023-08-06T00:27:59;100456.81;;;17.86;100.00
16120;BME280;12670;53.502;10.252;2023-08-06T00:31:01;100454.63;;;17.80;100.00
16120;BME280;12670;53.502;10.252;2023-08-06T00:34:04;100457.66;;;17.75;100.00
16120;BME280;12670;53.502;10.252;2023-08-06T00:37:07;100466.03;;;17.71;100.00
16120;BME280;12670;53.502;10.252;2023-08-06T00:40:11;100460.63;;;17.59;100.00
16120;BME280;12670;53.502;10.252;2023-08-06T00:43:13;100458.69;;;17.38;100.00
16120;BME280;12670;53.502;10.252;2023-08-06T00:46:16;100455.88;;;17.39;100.00
16120;BME280;12670;53.502;10.252;2023-08-06T00:49:19;100454.75;;;17.54;100.00
16120;BME280;12670;53.502;10.252;2023-08-06T00:52:22;100451.94;;;17.56;100.00
16120;BME280;12670;53.502;10.252;2023-08-06T00:55:26;100442.28;;;17.29;100.00
16120;BME280;12670;53.502;10.252;2023-08-06T00:58:29;100428.69;;;17.32;100.00
16120;BME280;12670;53.502;10.252;2023-08-06T01:01:32;100419.25;;;17.51;100.00
16120;BME280;12670;53.502;10.252;2023-08-06T01:04:35;100413.16;;;17.49;100.00
16120;BME280;12670;53.502;10.252;2023-08-06T01:07:44;100404.09;;;17.39;100.00
16120;BME280;12670;53.502;10.252;2023-08-06T01:11:01;100401.53;;;17.13;100.00
16120;BME280;12670;53.502;10.252;2023-08-06T01:14:15;100399.00;;;17.23;100.00
16120;BME280;12670;53.502;10.252;2023-08-06T01:17:18;100397.13;;;17.36;100.00
16120;BME280;12670;53.502;10.252;2023-08-06T01:20:28;100389.91;;;17.25;100.00
16120;BME280;12670;53.502;10.252;2023-08-06T01:23:30;100386.25;;;17.26;100.00
16120;BME280;12670;53.502;10.252;2023-08-06T01:26:38;100374.59;;;17.39;100.00
16120;BME280;12670;53.502;10.252;2023-08-06T01:29:45;100378.16;;;17.15;100.00
16120;BME280;12670;53.502;10.252;2023-08-06T01:32:53;100370.88;;;17.28;100.00
16120;BME280;12670;53.502;10.252;2023-08-06T01:36:01;100369.19;;;17.27;100.00
16120;BME280;12670;53.502;10.252;2023-08-06T01:39:05;100373.34;;;17.31;100.00
16120;BME280;12670;53.502;10.252;2023-08-06T01:42:07;100375.78;;;17.35;100.00
16120;BME280;12670;53.502;10.252;2023-08-06T01:45:10;100360.16;;;17.28;100.00
16120;BME280;12670;53.502;10.252;2023-08-06T01:48:13;100366.03;;;17.33;100.00
16120;BME280;12670;53.502;10.252;2023-08-06T01:51:17;100363.66;;;17.18;100.00
16120;BME280;12670;53.502;10.252;2023-08-06T01:54:20;100359.13;;;17.07;100.00
16120;BME280;12670;53.502;10.252;2023-08-06T01:57:24;100362.63;;;17.31;100.00
16120;BME280;12670;53.502;10.252;2023-08-06T02:00:26;100361.66;;;17.32;100.00
16120;BME280;12670;53.502;10.252;2023-08-06T02:03:30;100355.59;;;17.18;100.00
16120;BME280;12670;53.502;10.252;2023-08-06T02:06:34;100350.41;;;17.27;100.00
16120;BME280;12670;53.502;10.252;2023-08-06T02:09:37;100340.94;;;17.35;100.00
16120;BME280;12670;53.502;10.252;2023-08-06T02:12:39;100338.38;;;17.33;100.00
16120;BME280;12670;53.502;10.252;2023-08-06T02:15:42;100343.09;;;17.18;100.00
16120;BME280;12670;53.502;10.252;2023-08-06T02:18:45;100336.78;;;17.30;100.00
16120;BME280;12670;53.502;10.252;2023-08-06T02:21:49;100327.25;;;17.26;100.00
16120;BME280;12670;53.502;10.252;2023-08-06T02:24:52;100341.41;;;17.28;100.00
16120;BME280;12670;53.502;10.252;2023-08-06T02:27:55;100336.88;;;17.29;100.00
16120;BME280;12670;53.502;10.252;2023-08-06T02:30:58;100330.91;;;17.25;100.00
16120;BME280;12670;53.502;10.252;2023-08-06T02:34:01;100328.13;;;17.27;100.00
16120;BME280;12670;53.502;10.252;2023-08-06T02:37:05;100323.84;;;17.24;100.00
16120;BME280;12670;53.502;10.252;2023-08-06T02:40:08;100319.44;;;17.23;100.00
16120;BME280;12670;53.502;10.252;2023-08-06T02:43:11;100302.63;;;17.21;100.00
16120;BME280;12670;53.502;10.252;2023-08-06T02:46:14;100306.78;;;17.25;100.00
16120;BME280;12670;53.502;10.252;2023-08-06T02:49:16;100303.50;;;16.98;100.00
16120;BME280;12670;53.502;10.252;2023-08-06T02:52:20;100307.25;;;17.19;100.00
16120;BME280;12670;53.502;10.252;2023-08-06T02:55:23;100302.63;;;17.21;100.00
16120;BME280;12670;53.502;10.252;2023-08-06T02:58:26;100304.09;;;17.25;100.00
16120;BME280;12670;53.502;10.252;2023-08-06T03:01:28;100306.66;;;17.27;100.00
16120;BME280;12670;53.502;10.252;2023-08-06T03:04:31;100306.66;;;17.27;100.00
16120;BME280;12670;53.502;10.252;2023-08-06T03:07:35;100297.97;;;17.12;100.00
16120;BME280;12670;53.502;10.252;2023-08-06T03:10:39;100296.88;;;17.15;100.00
16120;BME280;12670;53.502;10.252;2023-08-06T03:13:43;100294.41;;;17.12;100.00
16120;BME280;12670;53.502;10.252;2023-08-06T03:16:46;100295.31;;;17.12;100.00
16120;BME280;12670;53.502;10.252;2023-08-06T03:19:49;100291.88;;;17.10;100.00
16120;BME280;12670;53.502;10.252;2023-08-06T03:22:53;100284.28;;;17.04;100.00
16120;BME280;12670;53.502;10.252;2023-08-06T03:25:55;100297.22;;;17.10;100.00
16120;BME280;12670;53.502;10.252;2023-08-06T03:28:58;100285.78;;;17.08;100.00
16120;BME280;12670;53.502;10.252;2023-08-06T03:32:01;100279.00;;;16.91;100.00
16120;BME280;12670;53.502;10.252;2023-08-06T03:35:04;100285.09;;;16.93;100.00
16120;BME280;12670;53.502;10.252;2023-08-06T03:38:08;100275.69;;;16.88;100.00
16120;BME280;12670;53.502;10.252;2023-08-06T03:41:11;100278.38;;;16.88;100.00
16120;BME280;12670;53.502;10.252;2023-08-06T03:44:14;100274.28;;;16.95;100.00
16120;BME280;12670;53.502;10.252;2023-08-06T03:47:16;100274.16;;;16.96;100.00
16120;BME280;12670;53.502;10.252;2023-08-06T03:50:19;100261.38;;;17.00;100.00
16120;BME280;12670;53.502;10.252;2023-08-06T03:53:23;100265.28;;;16.96;100.00
16120;BME280;12670;53.502;10.252;2023-08-06T03:56:26;100265.75;;;16.90;100.00
16120;BME280;12670;53.502;10.252;2023-08-06T03:59:28;100262.22;;;16.89;100.00
16120;BME280;12670;53.502;10.252;2023-08-06T04:02:31;100262.94;;;16.91;100.00
16120;BME280;12670;53.502;10.252;2023-08-06T04:05:34;100257.69;;;16.90;100.00
16120;BME280;12670;53.502;10.252;2023-08-06T04:08:38;100256.22;;;16.86;100.00
16120;BME280;12670;53.502;10.252;2023-08-06T04:11:41;100251.84;;;16.85;100.00
16120;BME280;12670;53.502;10.252;2023-08-06T04:14:43;100251.19;;;16.81;100.00
16120;BME280;12670;53.502;10.252;2023-08-06T04:17:46;100251.84;;;16.85;100.00
16120;BME280;12670;53.502;10.252;2023-08-06T04:20:49;100254.47;;;16.73;100.00
16120;BME280;12670;53.502;10.252;2023-08-06T04:23:55;100253.38;;;16.76;100.00
16120;BME280;12670;53.502;10.252;2023-08-06T04:26:58;100260.78;;;16.72;100.00
16120;BME280;12670;53.502;10.252;2023-08-06T04:30:01;100263.56;;;16.71;100.00
16120;BME280;12670;53.502;10.252;2023-08-06T04:33:03;100264.25;;;16.86;100.00
16120;BME280;12670;53.502;10.252;2023-08-06T04:36:06;100254.13;;;16.78;100.00
16120;BME280;12670;53.502;10.252;2023-08-06T04:39:10;100263.00;;;16.78;100.00
16120;BME280;12670;53.502;10.252;2023-08-06T04:42:13;100268.50;;;16.77;100.00
16120;BME280;12670;53.502;10.252;2023-08-06T04:45:16;100264.72;;;16.79;100.00
16120;BME280;12670;53.502;10.252;2023-08-06T04:48:18;100259.47;;;16.78;100.00
16120;BME280;12670;53.502;10.252;2023-08-06T04:51:21;100261.06;;;16.81;100.00
16120;BME280;12670;53.502;10.252;2023-08-06T04:54:25;100266.75;;;16.76;100.00
16120;BME280;12670;53.502;10.252;2023-08-06T04:57:28;100267.72;;;16.75;100.00
16120;BME280;12670;53.502;10.252;2023-08-06T05:00:31;100261.31;;;16.77;100.00
16120;BME280;12670;53.502;10.252;2023-08-06T05:03:33;100264.94;;;16.76;100.00
16120;BME280;12670;53.502;10.252;2023-08-06T05:06:36;100261.19;;;16.79;100.00
16120;BME280;12670;53.502;10.252;2023-08-06T05:09:43;100261.31;;;16.77;100.00
16120;BME280;12670;53.502;10.252;2023-08-06T05:12:45;100256.09;;;16.87;100.00
16120;BME280;12670;53.502;10.252;2023-08-06T05:15:48;100258.69;;;16.89;100.00
16120;BME280;12670;53.502;10.252;2023-08-06T05:18:51;100259.88;;;16.85;100.00
16120;BME280;12670;53.502;10.252;2023-08-06T05:21:54;100256.34;;;16.84;100.00
16120;BME280;12670;53.502;10.252;2023-08-06T05:24:58;100259.88;;;16.85;100.00
16120;BME280;12670;53.502;10.252;2023-08-06T05:28:00;100262.69;;;16.94;100.00
16120;BME280;12670;53.502;10.252;2023-08-06T05:31:04;100257.44;;;16.93;100.00
16120;BME280;12670;53.502;10.252;2023-08-06T05:34:07;100261.63;;;16.97;100.00
16120;BME280;12670;53.502;10.252;2023-08-06T05:37:10;100254.56;;;16.96;100.00
16120;BME280;12670;53.502;10.252;2023-08-06T05:40:14;100254.56;;;16.96;100.00
16120;BME280;12670;53.502;10.252;2023-08-06T05:43:16;100257.09;;;16.97;100.00
16120;BME280;12670;53.502;10.252;2023-08-06T05:46:19;100251.28;;;17.03;100.00
16120;BME280;12670;53.502;10.252;2023-08-06T05:49:22;100247.97;;;17.00;100.00
16120;BME280;12670;53.502;10.252;2023-08-06T05:52:25;100248.72;;;17.02;100.00
16120;BME280;12670;53.502;10.252;2023-08-06T05:55:28;100252.59;;;16.98;100.00
16120;BME280;12670;53.502;10.252;2023-08-06T05:58:32;100238.22;;;16.99;100.00
16120;BME280;12670;53.502;10.252;2023-08-06T06:01:35;100242.59;;;17.00;100.00
16120;BME280;12670;53.502;10.252;2023-08-06T06:04:38;100242.75;;;17.10;100.00
16120;BME280;12670;53.502;10.252;2023-08-06T06:07:40;100241.13;;;16.85;100.00
16120;BME280;12670;53.502;10.252;2023-08-06T06:10:44;100249.19;;;16.96;100.00
16120;BME280;12670;53.502;10.252;2023-08-06T06:13:48;100243.38;;;17.02;100.00
16120;BME280;12670;53.502;10.252;2023-08-06T06:16:51;100242.66;;;17.22;100.00
16120;BME280;12670;53.502;10.252;2023-08-06T06:19:54;100241.41;;;17.04;100.00
16120;BME280;12670;53.502;10.252;2023-08-06T06:22:57;100242.84;;;16.97;100.00
16120;BME280;12670;53.502;10.252;2023-08-06T06:26:01;100229.03;;;17.14;100.00
16120;BME280;12670;53.502;10.252;2023-08-06T06:29:04;100240.94;;;17.10;100.00
16120;BME280;12670;53.502;10.252;2023-08-06T06:32:08;100236.34;;;17.35;100.00
16120;BME280;12670;53.502;10.252;2023-08-06T06:35:12;100238.47;;;17.42;100.00
16120;BME280;12670;53.502;10.252;2023-08-06T06:38:14;100229.56;;;17.42;100.00
16120;BME280;12670;53.502;10.252;2023-08-06T06:41:18;100233.94;;;17.31;100.00
16120;BME280;12670;53.502;10.252;2023-08-06T06:44:21;100244.19;;;17.38;100.00
16120;BME280;12670;53.502;10.252;2023-08-06T06:47:24;100240.28;;;17.42;100.00
16120;BME280;12670;53.502;10.252;2023-08-06T06:50:27;100238.69;;;17.39;100.00
16120;BME280;12670;53.502;10.252;2023-08-06T06:53:29;100242.09;;;17.41;100.00
16120;BME280;12670;53.502;10.252;2023-08-06T06:56:33;100234.94;;;17.42;100.00
16120;BME280;12670;53.502;10.252;2023-08-06T06:59:36;100234.69;;;17.67;100.00
16120;BME280;12670;53.502;10.252;2023-08-06T07:02:39;100235.09;;;17.74;100.00
16120;BME280;12670;53.502;10.252;2023-08-06T07:05:43;100237.63;;;17.87;100.00
16120;BME280;12670;53.502;10.252;2023-08-06T07:08:46;100232.72;;;17.58;100.00
16120;BME280;12670;53.502;10.252;2023-08-06T07:11:50;100236.88;;;17.62;100.00
16120;BME280;12670;53.502;10.252;2023-08-06T07:14:55;100238.38;;;17.89;100.00
16120;BME280;12670;53.502;10.252;2023-08-06T07:17:57;100235.56;;;17.90;100.00
16120;BME280;12670;53.502;10.252;2023-08-06T07:21:00;100241.56;;;17.82;100.00
16120;BME280;12670;53.502;10.252;2023-08-06T07:24:03;100236.66;;;17.99;100.00
16120;BME280;12670;53.502;10.252;2023-08-06T07:27:07;100233.63;;;17.81;100.00
16120;BME280;12670;53.502;10.252;2023-08-06T07:30:10;100234.22;;;17.73;100.00
16120;BME280;12670;53.502;10.252;2023-08-06T07:33:13;100236.16;;;17.94;100.00
16120;BME280;12670;53.502;10.252;2023-08-06T07:36:16;100237.41;;;18.01;100.00
16120;BME280;12670;53.502;10.252;2023-08-06T07:39:18;100232.38;;;17.63;100.00
16120;BME280;12670;53.502;10.252;2023-08-06T07:42:22;100241.53;;;17.94;100.00
16120;BME280;12670;53.502;10.252;2023-08-06T07:45:25;100233.72;;;18.02;100.00
16120;BME280;12670;53.502;10.252;2023-08-06T07:48:29;100242.25;;;18.07;100.00
16120;BME280;12670;53.502;10.252;2023-08-06T07:51:32;100244.69;;;17.99;100.00
16120;BME280;12670;53.502;10.252;2023-08-06T07:54:35;100242.97;;;18.09;100.00
16120;BME280;12670;53.502;10.252;2023-08-06T07:57:39;100247.84;;;18.15;100.00
16120;BME280;12670;53.502;10.252;2023-08-06T08:00:41;100235.94;;;17.85;100.00
16120;BME280;12670;53.502;10.252;2023-08-06T08:03:46;100244.97;;;17.73;100.00
16120;BME280;12670;53.502;10.252;2023-08-06T08:06:49;100246.31;;;17.90;100.00
16120;BME280;12670;53.502;10.252;2023-08-06T08:09:52;100236.06;;;17.95;100.00
16120;BME280;12670;53.502;10.252;2023-08-06T08:12:56;100239.59;;;17.96;100.00
16120;BME280;12670;53.502;10.252;2023-08-06T08:16:00;100235.63;;;18.22;100.00
16120;BME280;12670;53.502;10.252;2023-08-06T08:19:03;100234.66;;;18.23;100.00
16120;BME280;12670;53.502;10.252;2023-08-06T08:22:06;100237.91;;;17.95;100.00
16120;BME280;12670;53.502;10.252;2023-08-06T08:25:09;100231.88;;;18.14;100.00
16120;BME280;12670;53.502;10.252;2023-08-06T08:28:13;100231.91;;;18.02;100.00
16120;BME280;12670;53.502;10.252;2023-08-06T08:31:15;100232.03;;;18.01;100.00
16120;BME280;12670;53.502;10.252;2023-08-06T08:34:18;100235.06;;;18.07;100.00
16120;BME280;12670;53.502;10.252;2023-08-06T08:37:21;100236.63;;;18.10;100.00
16120;BME280;12670;53.502;10.252;2023-08-06T08:40:29;100236.50;;;18.11;100.00
16120;BME280;12670;53.502;10.252;2023-08-06T08:43:36;100236.63;;;18.21;100.00
16120;BME280;12670;53.502;10.252;2023-08-06T08:46:40;100228.06;;;18.27;100.00
16120;BME280;12670;53.502;10.252;2023-08-06T08:49:43;100224.38;;;18.28;100.00
16120;BME280;12670;53.502;10.252;2023-08-06T08:52:50;100228.81;;;18.29;100.00
16120;BME280;12670;53.502;10.252;2023-08-06T08:55:54;100219.59;;;17.89;100.00
16120;BME280;12670;53.502;10.252;2023-08-06T08:58:58;100224.84;;;17.90;100.00
16120;BME280;12670;53.502;10.252;2023-08-06T09:02:01;100223.06;;;18.11;100.00
16120;BME280;12670;53.502;10.252;2023-08-06T09:05:05;100214.50;;;18.29;100.00
16120;BME280;12670;53.502;10.252;2023-08-06T09:08:11;100219.53;;;18.22;100.00
16120;BME280;12670;53.502;10.252;2023-08-06T09:11:14;100218.09;;;18.18;100.00
16120;BME280;12670;53.502;10.252;2023-08-06T09:14:19;100214.13;;;18.33;100.00
16120;BME280;12670;53.502;10.252;2023-08-06T09:17:21;100212.69;;;18.29;100.00
16120;BME280;12670;53.502;10.252;2023-08-06T09:20:24;100211.44;;;18.33;100.00
16120;BME280;12670;53.502;10.252;2023-08-06T09:23:28;100216.97;;;18.21;100.00
16120;BME280;12670;53.502;10.252;2023-08-06T09:26:33;100217.03;;;17.76;100.00
16120;BME280;12670;53.502;10.252;2023-08-06T09:29:40;100226.34;;;18.26;100.00
16120;BME280;12670;53.502;10.252;2023-08-06T09:32:46;100230.91;;;18.47;100.00
16120;BME280;12670;53.502;10.252;2023-08-06T09:35:49;100226.69;;;18.44;100.00
16120;BME280;12670;53.502;10.252;2023-08-06T09:38:52;100227.53;;;18.45;100.00
16120;BME280;12670;53.502;10.252;2023-08-06T09:41:56;100222.34;;;18.21;100.00
16120;BME280;12670;53.502;10.252;2023-08-06T09:45:07;100233.47;;;18.05;100.00
16120;BME280;12670;53.502;10.252;2023-08-06T09:48:09;100229.59;;;17.87;100.00
16120;BME280;12670;53.502;10.252;2023-08-06T09:51:14;100230.03;;;18.25;100.00
16120;BME280;12670;53.502;10.252;2023-08-06T09:54:17;100226.19;;;18.39;100.00
16120;BME280;12670;53.502;10.252;2023-08-06T09:57:29;100226.88;;;18.20;100.00
16120;BME280;12670;53.502;10.252;2023-08-06T10:00:34;100231.44;;;18.41;100.00
16120;BME280;12670;53.502;10.252;2023-08-06T10:03:40;100237.03;;;18.49;100.00
16120;BME280;12670;53.502;10.252;2023-08-06T10:06:46;100233.13;;;18.53;100.00
16120;BME280;12670;53.502;10.252;2023-08-06T10:09:50;100231.63;;;18.60;100.00
16120;BME280;12670;53.502;10.252;2023-08-06T10:12:55;100229.41;;;18.22;100.00
16120;BME280;12670;53.502;10.252;2023-08-06T10:16:01;100230.59;;;18.40;100.00
16120;BME280;12670;53.502;10.252;2023-08-06T10:19:09;100227.38;;;18.14;100.00
16120;BME280;12670;53.502;10.252;2023-08-06T10:22:13;100224.47;;;18.06;100.00
16120;BME280;12670;53.502;10.252;2023-08-06T10:25:16;100216.63;;;18.14;100.00
16120;BME280;12670;53.502;10.252;2023-08-06T10:28:19;100218.50;;;18.34;100.00
16120;BME280;12670;53.502;10.252;2023-08-06T10:31:53;100211.97;;;18.16;100.00
16120;BME280;12670;53.502;10.252;2023-08-06T10:34:57;100212.28;;;18.34;100.00
16120;BME280;12670;53.502;10.252;2023-08-06T10:38:03;100206.88;;;18.02;100.00
16120;BME280;12670;53.502;10.252;2023-08-06T10:41:06;100211.22;;;18.25;100.00
16120;BME280;12670;53.502;10.252;2023-08-06T10:44:10;100207.44;;;18.28;100.00
16120;BME280;12670;53.502;10.252;2023-08-06T10:47:27;100208.78;;;18.22;100.00
16120;BME280;12670;53.502;10.252;2023-08-06T10:50:30;100197.63;;;18.38;100.00
16120;BME280;12670;53.502;10.252;2023-08-06T10:53:33;100203.00;;;18.38;100.00
16120;BME280;12670;53.502;10.252;2023-08-06T10:56:39;100193.19;;;18.16;100.00
16120;BME280;12670;53.502;10.252;2023-08-06T10:59:42;100195.84;;;18.27;100.00
16120;BME280;12670;53.502;10.252;2023-08-06T11:02:48;100193.00;;;18.29;100.00
16120;BME280;12670;53.502;10.252;2023-08-06T11:05:51;100185.84;;;18.29;100.00
16120;BME280;12670;53.502;10.252;2023-08-06T11:08:54;100181.19;;;18.31;100.00
16120;BME280;12670;53.502;10.252;2023-08-06T11:11:57;100179.56;;;18.40;100.00
16120;BME280;12670;53.502;10.252;2023-08-06T11:15:01;100175.78;;;18.43;100.00
16120;BME280;12670;53.502;10.252;2023-08-06T11:18:05;100167.03;;;18.29;100.00
16120;BME280;12670;53.502;10.252;2023-08-06T11:21:08;100172.53;;;18.28;100.00
16120;BME280;12670;53.502;10.252;2023-08-06T11:24:11;100169.88;;;18.49;100.00
16120;BME280;12670;53.502;10.252;2023-08-06T11:27:15;100164.56;;;18.37;100.00
16120;BME280;12670;53.502;10.252;2023-08-06T11:30:18;100167.22;;;18.49;100.00
16120;BME280;12670;53.502;10.252;2023-08-06T11:33:22;100166.69;;;18.55;100.00
16120;BME280;12670;53.502;10.252;2023-08-06T11:36:30;100171.13;;;18.45;100.00
16120;BME280;12670;53.502;10.252;2023-08-06T11:39:35;100170.31;;;18.65;100.00
16120;BME280;12670;53.502;10.252;2023-08-06T11:42:38;100173.59;;;18.69;100.00
16120;BME280;12670;53.502;10.252;2023-08-06T11:45:40;100172.09;;;18.76;100.00
16120;BME280;12670;53.502;10.252;2023-08-06T11:48:54;100174.22;;;18.61;100.00
16120;BME280;12670;53.502;10.252;2023-08-06T11:51:57;100169.84;;;18.60;100.00
16120;BME280;12670;53.502;10.252;2023-08-06T11:55:01;100181.28;;;18.41;100.00
16120;BME280;12670;53.502;10.252;2023-08-06T11:58:09;100172.44;;;18.82;100.00
16120;BME280;12670;53.502;10.252;2023-08-06T12:01:13;100169.56;;;18.63;100.00
16120;BME280;12670;53.502;10.252;2023-08-06T12:04:17;100169.53;;;18.74;100.00
16120;BME280;12670;53.502;10.252;2023-08-06T12:07:26;100168.03;;;18.81;100.00
16120;BME280;12670;53.502;10.252;2023-08-06T12:10:30;100155.75;;;19.00;100.00
16120;BME280;12670;53.502;10.252;2023-08-06T12:13:33;100154.47;;;19.04;100.00
16120;BME280;12670;53.502;10.252;2023-08-06T12:16:35;100146.41;;;19.04;100.00
16120;BME280;12670;53.502;10.252;2023-08-06T12:19:39;100141.34;;;19.10;100.00
16120;BME280;12670;53.502;10.252;2023-08-06T12:22:42;100148.22;;;19.24;100.00
16120;BME280;12670;53.502;10.252;2023-08-06T12:25:46;100130.38;;;19.23;100.00
16120;BME280;12670;53.502;10.252;2023-08-06T12:28:51;100137.34;;;19.05;100.00
16120;BME280;12670;53.502;10.252;2023-08-06T12:31:56;100124.97;;;19.13;100.00
16120;BME280;12670;53.502;10.252;2023-08-06T12:35:00;100127.41;;;19.26;100.00
16120;BME280;12670;53.502;10.252;2023-08-06T12:38:03;100130.09;;;19.26;100.00
16120;BME280;12670;53.502;10.252;2023-08-06T12:41:06;100131.00;;;19.36;100.00
16120;BME280;12670;53.502;10.252;2023-08-06T12:44:09;100134.03;;;19.22;100.00
16120;BME280;12670;53.502;10.252;2023-08-06T12:47:11;100137.81;;;19.10;100.00
16120;BME280;12670;53.502;10.252;2023-08-06T12:50:15;100135.03;;;19.21;100.00
16120;BME280;12670;53.502;10.252;2023-08-06T12:53:19;100126.59;;;19.05;100.00
16120;BME280;12670;53.502;10.252;2023-08-06T12:56:24;100124.63;;;19.07;100.00
16120;BME280;12670;53.502;10.252;2023-08-06T12:59:27;100128.03;;;19.09;100.00
16120;BME280;12670;53.502;10.252;2023-08-06T13:02:30;100120.34;;;18.95;100.00
16120;BME280;12670;53.502;10.252;2023-08-06T13:05:34;100126.50;;;19.16;100.00
16120;BME280;12670;53.502;10.252;2023-08-06T13:08:37;100118.84;;;19.42;100.00
16120;BME280;12670;53.502;10.252;2023-08-06T13:11:40;100123.72;;;19.27;100.00
16120;BME280;12670;53.502;10.252;2023-08-06T13:14:43;100120.25;;;19.36;100.00
16120;BME280;12670;53.502;10.252;2023-08-06T13:17:48;100129.16;;;19.67;100.00
16120;BME280;12670;53.502;10.252;2023-08-06T13:20:54;100125.06;;;19.73;100.00
16120;BME280;12670;53.502;10.252;2023-08-06T13:23:56;100111.22;;;19.78;100.00
16120;BME280;12670;53.502;10.252;2023-08-06T13:26:59;100115.59;;;19.79;100.00
16120;BME280;12670;53.502;10.252;2023-08-06T13:30:02;100119.59;;;19.94;100.00
16120;BME280;12670;53.502;10.252;2023-08-06T13:33:05;100118.28;;;19.79;100.00
16120;BME280;12670;53.502;10.252;2023-08-06T13:36:09;100121.84;;;19.98;100.00
16120;BME280;12670;53.502;10.252;2023-08-06T13:39:12;100118.22;;;20.29;100.00
16120;BME280;12670;53.502;10.252;2023-08-06T13:42:17;100117.09;;;20.41;100.00
16120;BME280;12670;53.502;10.252;2023-08-06T13:45:20;100112.25;;;20.15;100.00
16120;BME280;12670;53.502;10.252;2023-08-06T13:48:23;100106.97;;;20.04;100.00
16120;BME280;12670;53.502;10.252;2023-08-06T13:51:27;100114.22;;;20.33;100.00
16120;BME280;12670;53.502;10.252;2023-08-06T13:54:30;100118.25;;;20.48;100.00
16120;BME280;12670;53.502;10.252;2023-08-06T13:57:33;100114.53;;;20.49;100.00
16120;BME280;12670;53.502;10.252;2023-08-06T14:00:36;100111.38;;;20.34;100.00
16120;BME280;12670;53.502;10.252;2023-08-06T14:03:39;100114.50;;;20.39;100.00
16120;BME280;12670;53.502;10.252;2023-08-06T14:06:43;100113.38;;;20.13;100.00
16120;BME280;12670;53.502;10.252;2023-08-06T14:09:46;100116.50;;;20.18;100.00
16120;BME280;12670;53.502;10.252;2023-08-06T14:12:50;100112.50;;;19.93;100.00
16120;BME280;12670;53.502;10.252;2023-08-06T14:16:10;100100.59;;;19.86;100.00
16120;BME280;12670;53.502;10.252;2023-08-06T14:19:13;100103.69;;;19.81;100.00
16120;BME280;12670;53.502;10.252;2023-08-06T14:22:17;100105.41;;;19.82;100.00
16120;BME280;12670;53.502;10.252;2023-08-06T14:25:20;100116.19;;;19.92;100.00
16120;BME280;12670;53.502;10.252;2023-08-06T14:28:23;100112.50;;;19.83;100.00
16120;BME280;12670;53.502;10.252;2023-08-06T14:31:25;100104.03;;;19.57;100.00
16120;BME280;12670;53.502;10.252;2023-08-06T14:34:28;100110.47;;;19.66;100.00
16120;BME280;12670;53.502;10.252;2023-08-06T14:37:32;100127.78;;;19.42;100.00
16120;BME280;12670;53.502;10.252;2023-08-06T14:40:35;100126.06;;;19.11;100.00
16120;BME280;12670;53.502;10.252;2023-08-06T14:43:39;100118.06;;;19.21;100.00
16120;BME280;12670;53.502;10.252;2023-08-06T14:46:41;100126.03;;;19.01;100.00
16120;BME280;12670;53.502;10.252;2023-08-06T14:49:44;100122.22;;;19.04;100.00
16120;BME280;12670;53.502;10.252;2023-08-06T14:52:48;100116.81;;;19.25;100.00
16120;BME280;12670;53.502;10.252;2023-08-06T14:55:51;100119.09;;;19.29;100.00
16120;BME280;12670;53.502;10.252;2023-08-06T14:58:54;100117.66;;;18.95;100.00
16120;BME280;12670;53.502;10.252;2023-08-06T15:01:56;100117.97;;;19.01;100.00
16120;BME280;12670;53.502;10.252;2023-08-06T15:04:59;100126.28;;;18.98;100.00
16120;BME280;12670;53.502;10.252;2023-08-06T15:08:03;100130.41;;;18.81;100.00
16120;BME280;12670;53.502;10.252;2023-08-06T15:11:06;100126.88;;;18.60;100.00
16120;BME280;12670;53.502;10.252;2023-08-06T15:14:08;100140.72;;;18.44;100.00
16120;BME280;12670;53.502;10.252;2023-08-06T15:17:11;100148.13;;;18.52;100.00
16120;BME280;12670;53.502;10.252;2023-08-06T15:20:14;100149.88;;;18.53;100.00
16120;BME280;12670;53.502;10.252;2023-08-06T15:23:18;100144.25;;;18.45;100.00
16120;BME280;12670;53.502;10.252;2023-08-06T15:26:21;100148.25;;;18.29;100.00
16120;BME280;12670;53.502;10.252;2023-08-06T15:29:23;100144.03;;;18.48;100.00
16120;BME280;12670;53.502;10.252;2023-08-06T15:32:26;100144.81;;;18.27;100.00
16120;BME280;12670;53.502;10.252;2023-08-06T15:35:29;100140.00;;;18.10;100.00